Time;durP1;ratioP1;P1;durP2;ratioP2;P2;SDS_P1;SDS_P2;PMS_P1;PMS_P2;Temp;Humidity;BMP_temperature;BMP_pressure;BME280_temperature;BME280_humidity;BME280_pressure;Samples;Min_cycle;Max_cycle;Signal;HPM_P1;HPM_P2
2023/08/22 00:01:22;;;;;;;13.90;5.13;;;;;;;;;;5002152;28;20551;-66
2023/08/22 00:03:48;;;;;;;14.73;5.18;;;;;;;;;;5004485;28;20037;-66
2023/08/22 00:06:14;;;;;;;12.10;4.90;;;;;;;;;;5019675;28;20036;-66
2023/08/22 00:08:40;;;;;;;14.80;5.10;;;;;;;;;;5003654;28;20040;-66
2023/08/22 00:11:06;;;;;;;13.82;5.50;;;;;;;;;;5020920;28;20258;-66
2023/08/22 00:13:32;;;;;;;13.52;5.18;;;;;;;;;;5017747;28;20156;-66
2023/08/22 00:16:00;;;;;;;12.38;5.20;;;;;;;;;;5017337;28;20052;-67
2023/08/22 00:18:27;;;;;;;12.65;5.30;;;;;;;;;;5004128;28;20032;-66
2023/08/22 00:20:53;;;;;;;14.45;4.88;;;;;;;;;;5018972;28;20029;-67
2023/08/22 00:23:19;;;;;;;11.85;4.32;;;;;;;;;;5017523;28;20021;-67
2023/08/22 00:25:45;;;;;;;12.93;4.40;;;;;;;;;;5001474;28;20359;-66
2023/08/22 00:28:14;;;;;;;14.98;4.65;;;;;;;;;;5017150;28;20047;-66
2023/08/22 00:30:40;;;;;;;14.77;4.53;;;;;;;;;;5021417;28;20024;-66
2023/08/22 00:33:07;;;;;;;12.27;4.60;;;;;;;;;;5021471;28;20025;-66
2023/08/22 00:35:33;;;;;;;10.40;4.00;;;;;;;;;;5016185;28;20037;-66
2023/08/22 00:37:59;;;;;;;11.13;4.25;;;;;;;;;;5001957;28;20088;-66
2023/08/22 00:40:25;;;;;;;13.00;4.60;;;;;;;;;;5015796;28;20052;-66
2023/08/22 00:42:51;;;;;;;11.95;4.30;;;;;;;;;;5023150;28;20052;-67
2023/08/22 00:45:17;;;;;;;12.00;4.28;;;;;;;;;;4999854;28;20036;-66
2023/08/22 00:47:44;;;;;;;10.98;4.15;;;;;;;;;;5004671;28;20033;-66
2023/08/22 00:50:10;;;;;;;12.88;4.50;;;;;;;;;;5019014;28;20029;-66
2023/08/22 00:52:37;;;;;;;12.43;4.38;;;;;;;;;;5021378;28;20035;-66
2023/08/22 00:55:03;;;;;;;11.07;4.07;;;;;;;;;;5023377;28;20285;-66
2023/08/22 00:57:29;;;;;;;13.93;4.20;;;;;;;;;;5019067;28;20040;-66
2023/08/22 00:59:56;;;;;;;14.48;4.60;;;;;;;;;;5020096;28;20048;-66
2023/08/22 01:02:22;;;;;;;12.10;4.47;;;;;;;;;;5017761;28;20030;-66
2023/08/22 01:04:48;;;;;;;12.93;3.67;;;;;;;;;;5020661;28;20454;-66
2023/08/22 01:07:27;;;;;;;11.45;4.28;;;;;;;;;;4994446;28;20056;-66
2023/08/22 01:10:00;;;;;;;13.65;4.55;;;;;;;;;;5021913;28;20029;-66
2023/08/22 01:12:35;;;;;;;11.23;3.70;;;;;;;;;;5018652;28;20025;-67
2023/08/22 01:15:09;;;;;;;15.02;4.13;;;;;;;;;;5021842;28;20120;-67
2023/08/22 01:17:37;;;;;;;14.05;4.38;;;;;;;;;;5020557;28;20341;-67
2023/08/22 01:20:04;;;;;;;13.07;4.07;;;;;;;;;;5021579;28;20040;-67
2023/08/22 01:22:31;;;;;;;13.93;4.45;;;;;;;;;;5022204;28;20026;-67
2023/08/22 01:24:57;;;;;;;11.48;4.28;;;;;;;;;;5016454;28;20605;-68
2023/08/22 01:27:27;;;;;;;11.07;4.13;;;;;;;;;;5019414;28;20025;-67
2023/08/22 01:30:03;;;;;;;12.00;4.18;;;;;;;;;;5023175;28;20211;-67
2023/08/22 01:32:31;;;;;;;15.25;4.13;;;;;;;;;;4998708;28;20683;-67
2023/08/22 01:35:00;;;;;;;14.18;4.85;;;;;;;;;;5021677;28;20036;-68
2023/08/22 01:37:27;;;;;;;13.73;4.38;;;;;;;;;;4998757;28;20421;-67
2023/08/22 01:39:56;;;;;;;13.30;4.13;;;;;;;;;;5019596;28;20396;-67
2023/08/22 01:42:24;;;;;;;12.40;4.22;;;;;;;;;;5000881;28;20102;-67
2023/08/22 01:44:50;;;;;;;10.32;4.38;;;;;;;;;;5014455;28;20285;-67
2023/08/22 01:47:16;;;;;;;12.18;4.22;;;;;;;;;;5011151;28;20033;-67
2023/08/22 01:49:42;;;;;;;10.90;4.60;;;;;;;;;;5016349;28;20028;-67
2023/08/22 01:52:08;;;;;;;11.82;4.22;;;;;;;;;;5020213;28;20576;-67
2023/08/22 01:54:38;;;;;;;12.57;4.45;;;;;;;;;;5008977;28;20422;-68
2023/08/22 01:57:05;;;;;;;10.90;4.13;;;;;;;;;;5024255;28;20378;-67
2023/08/22 01:59:31;;;;;;;12.93;4.50;;;;;;;;;;5021608;28;20511;-67
2023/08/22 02:01:57;;;;;;;15.45;4.75;;;;;;;;;;5022400;28;20033;-67
2023/08/22 02:04:23;;;;;;;13.18;4.57;;;;;;;;;;5018582;28;20067;-67
2023/08/22 02:06:49;;;;;;;13.80;4.30;;;;;;;;;;5009905;28;20040;-67
2023/08/22 02:09:15;;;;;;;15.88;4.88;;;;;;;;;;5020848;28;20025;-67
2023/08/22 02:11:41;;;;;;;13.73;4.50;;;;;;;;;;5021534;28;20029;-68
2023/08/22 02:14:07;;;;;;;13.73;4.75;;;;;;;;;;5022573;28;20716;-67
2023/08/22 02:16:34;;;;;;;13.95;4.22;;;;;;;;;;5021045;28;20117;-67
2023/08/22 02:19:00;;;;;;;13.50;4.82;;;;;;;;;;5023642;28;20102;-67
2023/08/22 02:21:26;;;;;;;13.57;4.78;;;;;;;;;;5019900;28;20029;-68
2023/08/22 02:23:52;;;;;;;13.50;4.90;;;;;;;;;;5022098;28;20029;-67
2023/08/22 02:26:19;;;;;;;11.00;5.47;;;;;;;;;;5018771;28;21037;-67
2023/08/22 02:28:45;;;;;;;12.23;5.28;;;;;;;;;;5021478;28;20113;-67
2023/08/22 02:31:11;;;;;;;12.48;5.22;;;;;;;;;;5019126;28;20029;-67
2023/08/22 02:33:37;;;;;;;13.35;5.35;;;;;;;;;;5023542;28;20034;-67
2023/08/22 02:36:03;;;;;;;13.57;5.10;;;;;;;;;;5004205;28;20090;-67
2023/08/22 02:38:29;;;;;;;11.75;5.07;;;;;;;;;;5021289;28;20040;-67
2023/08/22 02:40:56;;;;;;;13.98;4.78;;;;;;;;;;5003025;28;20033;-67
2023/08/22 02:43:22;;;;;;;13.45;5.18;;;;;;;;;;5019969;28;20447;-66
2023/08/22 02:45:48;;;;;;;12.13;5.07;;;;;;;;;;5026729;28;20826;-67
2023/08/22 02:48:14;;;;;;;12.52;5.22;;;;;;;;;;5018840;28;20040;-67
2023/08/22 02:50:40;;;;;;;12.85;5.20;;;;;;;;;;5024749;28;20028;-67
2023/08/22 02:53:07;;;;;;;13.70;4.50;;;;;;;;;;5025322;28;20042;-66
2023/08/22 02:55:33;;;;;;;16.60;5.60;;;;;;;;;;5021890;28;20071;-65
2023/08/22 02:57:59;;;;;;;13.48;4.63;;;;;;;;;;5020690;28;20037;-64
2023/08/22 03:00:25;;;;;;;10.43;4.50;;;;;;;;;;5023253;28;20071;-67
2023/08/22 03:02:51;;;;;;;13.65;4.72;;;;;;;;;;5007926;28;20041;-68
2023/08/22 03:05:17;;;;;;;10.18;4.40;;;;;;;;;;5020309;28;20400;-65
2023/08/22 03:07:44;;;;;;;13.10;4.60;;;;;;;;;;5022563;28;20028;-66
2023/08/22 03:10:10;;;;;;;10.98;4.68;;;;;;;;;;5018454;28;20044;-66
2023/08/22 03:12:36;;;;;;;11.85;4.40;;;;;;;;;;5020242;28;20102;-66
2023/08/22 03:15:02;;;;;;;11.35;4.30;;;;;;;;;;5025903;28;20139;-65
2023/08/22 03:17:29;;;;;;;15.25;4.70;;;;;;;;;;5019759;28;20404;-65
2023/08/22 03:19:55;;;;;;;17.23;4.55;;;;;;;;;;5022673;28;20029;-66
2023/08/22 03:22:21;;;;;;;12.18;4.45;;;;;;;;;;5018864;28;20067;-65
2023/08/22 03:24:47;;;;;;;13.10;4.45;;;;;;;;;;5022949;28;20029;-65
2023/08/22 03:27:13;;;;;;;13.75;4.78;;;;;;;;;;5002400;28;20086;-66
2023/08/22 03:29:39;;;;;;;14.02;4.63;;;;;;;;;;5024358;28;20028;-66
2023/08/22 03:32:06;;;;;;;14.55;4.60;;;;;;;;;;5023651;28;20071;-66
2023/08/22 03:34:32;;;;;;;13.60;4.68;;;;;;;;;;5018940;28;20056;-66
2023/08/22 03:36:58;;;;;;;12.95;4.28;;;;;;;;;;5021631;28;20076;-66
2023/08/22 03:39:24;;;;;;;12.32;5.05;;;;;;;;;;4999893;28;20432;-66
2023/08/22 03:41:50;;;;;;;16.05;4.63;;;;;;;;;;5019998;28;20317;-66
2023/08/22 03:44:16;;;;;;;14.88;4.97;;;;;;;;;;5020343;28;20127;-66
2023/08/22 03:46:42;;;;;;;13.85;4.78;;;;;;;;;;5023810;28;20063;-66
2023/08/22 03:49:09;;;;;;;13.65;4.82;;;;;;;;;;5000713;28;20017;-66
2023/08/22 03:51:35;;;;;;;12.23;4.63;;;;;;;;;;5019954;28;20040;-66
2023/08/22 03:54:01;;;;;;;12.82;4.68;;;;;;;;;;5004943;28;20032;-67
2023/08/22 03:56:27;;;;;;;15.27;4.53;;;;;;;;;;5019052;28;20037;-66
2023/08/22 03:58:53;;;;;;;11.95;4.57;;;;;;;;;;5018445;28;20250;-67
2023/08/22 04:01:19;;;;;;;14.43;4.72;;;;;;;;;;5000620;28;20041;-66
2023/08/22 04:03:45;;;;;;;14.73;5.25;;;;;;;;;;5024040;28;20061;-66
2023/08/22 04:06:12;;;;;;;12.45;5.35;;;;;;;;;;5021416;28;20033;-66
2023/08/22 04:08:38;;;;;;;14.25;5.28;;;;;;;;;;5026649;28;20107;-66
2023/08/22 04:11:04;;;;;;;12.05;4.80;;;;;;;;;;5024028;28;20040;-66
2023/08/22 04:13:30;;;;;;;14.70;5.90;;;;;;;;;;5015451;28;20033;-66
2023/08/22 04:15:56;;;;;;;15.38;6.30;;;;;;;;;;5021005;28;20076;-66
2023/08/22 04:18:23;;;;;;;13.05;5.53;;;;;;;;;;5001870;28;20029;-65
2023/08/22 04:20:49;;;;;;;13.27;5.45;;;;;;;;;;5001957;28;20056;-66
2023/08/22 04:23:15;;;;;;;14.05;5.50;;;;;;;;;;4999612;28;20033;-66
2023/08/22 04:25:41;;;;;;;14.65;5.72;;;;;;;;;;5019440;28;20033;-66
2023/08/22 04:28:07;;;;;;;13.88;5.57;;;;;;;;;;5017363;28;20039;-66
2023/08/22 04:30:33;;;;;;;14.48;5.88;;;;;;;;;;5001261;28;20048;-66
2023/08/22 04:33:00;;;;;;;17.38;5.95;;;;;;;;;;5022073;28;20142;-66
2023/08/22 04:35:26;;;;;;;12.27;5.68;;;;;;;;;;5017087;28;20120;-66
2023/08/22 04:37:52;;;;;;;13.07;5.30;;;;;;;;;;5019486;28;20316;-65
2023/08/22 04:40:18;;;;;;;13.48;6.32;;;;;;;;;;5020638;28;20668;-66
2023/08/22 04:42:44;;;;;;;15.23;6.65;;;;;;;;;;5023905;28;20661;-66
2023/08/22 04:45:10;;;;;;;19.48;7.10;;;;;;;;;;5017655;28;20051;-66
2023/08/22 04:47:36;;;;;;;17.85;6.90;;;;;;;;;;5019182;28;20021;-68
2023/08/22 04:50:03;;;;;;;17.13;7.60;;;;;;;;;;5019184;28;20061;-66
2023/08/22 04:52:29;;;;;;;17.00;7.50;;;;;;;;;;5017903;28;20040;-66
2023/08/22 04:54:56;;;;;;;15.80;7.05;;;;;;;;;;5018096;28;20416;-66
2023/08/22 04:57:23;;;;;;;19.77;6.88;;;;;;;;;;4998446;28;20041;-66
2023/08/22 04:59:52;;;;;;;14.88;6.10;;;;;;;;;;4998338;28;20021;-65
2023/08/22 05:02:18;;;;;;;15.88;6.57;;;;;;;;;;5017905;28;20509;-66
2023/08/22 05:04:44;;;;;;;20.52;6.70;;;;;;;;;;5020615;28;20033;-66
2023/08/22 05:07:11;;;;;;;17.95;6.15;;;;;;;;;;5016905;28;20317;-65
2023/08/22 05:09:37;;;;;;;17.70;6.20;;;;;;;;;;5018603;28;20433;-66
2023/08/22 05:12:03;;;;;;;14.32;5.75;;;;;;;;;;5020977;28;20033;-66
2023/08/22 05:14:32;;;;;;;17.67;5.88;;;;;;;;;;5018459;28;20043;-66
2023/08/22 05:16:58;;;;;;;14.40;5.80;;;;;;;;;;5020399;28;20377;-66
2023/08/22 05:19:24;;;;;;;15.98;5.15;;;;;;;;;;5018071;28;20618;-66
2023/08/22 05:21:50;;;;;;;20.83;5.78;;;;;;;;;;5021775;28;20039;-66
2023/08/22 05:24:16;;;;;;;23.77;5.95;;;;;;;;;;5015217;28;20554;-67
2023/08/22 05:26:42;;;;;;;17.10;5.32;;;;;;;;;;5020452;28;20440;-65
2023/08/22 05:29:08;;;;;;;16.05;5.18;;;;;;;;;;5019557;28;20490;-65
2023/08/22 05:31:35;;;;;;;13.95;4.90;;;;;;;;;;5018986;28;20032;-66
2023/08/22 05:34:01;;;;;;;14.00;4.32;;;;;;;;;;5022760;28;20033;-66
2023/08/22 05:36:27;;;;;;;19.08;4.15;;;;;;;;;;5018820;28;20028;-66
2023/08/22 05:38:53;;;;;;;19.63;4.25;;;;;;;;;;5021349;28;20712;-66
2023/08/22 05:41:19;;;;;;;15.93;4.05;;;;;;;;;;4997943;28;20025;-66
2023/08/22 05:43:45;;;;;;;11.95;3.75;;;;;;;;;;5019259;28;20112;-65
2023/08/22 05:46:12;;;;;;;12.95;3.47;;;;;;;;;;5016866;28;20039;-66
2023/08/22 05:48:38;;;;;;;14.35;4.05;;;;;;;;;;5002859;28;20437;-66
2023/08/22 05:51:04;;;;;;;12.57;3.40;;;;;;;;;;5019506;28;20032;-66
2023/08/22 05:53:30;;;;;;;14.13;4.03;;;;;;;;;;5017094;28;20138;-66
2023/08/22 05:55:56;;;;;;;12.23;3.60;;;;;;;;;;5017054;28;20044;-66
2023/08/22 05:58:22;;;;;;;13.18;3.97;;;;;;;;;;5019497;28;20029;-66
2023/08/22 06:00:49;;;;;;;13.07;4.30;;;;;;;;;;5017402;28;20071;-66
2023/08/22 06:03:15;;;;;;;13.82;3.85;;;;;;;;;;5003531;28;20079;-66
2023/08/22 06:05:41;;;;;;;14.52;4.30;;;;;;;;;;5019591;28;20680;-67
2023/08/22 06:08:07;;;;;;;19.02;6.80;;;;;;;;;;5021359;28;20317;-66
2023/08/22 06:10:33;;;;;;;12.98;4.97;;;;;;;;;;5019215;28;20130;-66
2023/08/22 06:13:00;;;;;;;17.67;5.07;;;;;;;;;;5023975;28;20029;-66
2023/08/22 06:15:26;;;;;;;11.52;4.57;;;;;;;;;;5020032;28;20036;-67
2023/08/22 06:17:52;;;;;;;17.50;5.00;;;;;;;;;;5001201;28;20124;-66
2023/08/22 06:20:18;;;;;;;15.65;4.75;;;;;;;;;;5019394;28;20033;-66
2023/08/22 06:22:44;;;;;;;14.88;4.20;;;;;;;;;;5022488;28;20032;-66
2023/08/22 06:25:10;;;;;;;15.10;4.35;;;;;;;;;;5003743;28;20041;-65
2023/08/22 06:27:36;;;;;;;18.52;4.55;;;;;;;;;;5015964;28;20040;-65
2023/08/22 06:30:03;;;;;;;17.27;4.85;;;;;;;;;;5018844;28;20029;-66
2023/08/22 06:32:29;;;;;;;18.95;5.13;;;;;;;;;;5019673;28;20186;-68
2023/08/22 06:34:59;;;;;;;17.95;4.60;;;;;;;;;;5006198;28;20037;-67
2023/08/22 06:37:25;;;;;;;14.40;4.28;;;;;;;;;;4999620;28;20479;-67
2023/08/22 06:39:52;;;;;;;17.17;5.20;;;;;;;;;;5022896;28;20464;-67
2023/08/22 06:42:18;;;;;;;16.00;5.50;;;;;;;;;;5022322;28;20032;-66
2023/08/22 06:44:46;;;;;;;21.13;5.70;;;;;;;;;;5022909;28;20140;-71
2023/08/22 06:47:12;;;;;;;18.52;5.70;;;;;;;;;;5002533;28;20219;-66
2023/08/22 06:49:38;;;;;;;16.92;6.05;;;;;;;;;;5023368;28;20115;-67
2023/08/22 06:52:04;;;;;;;18.83;6.70;;;;;;;;;;5023076;28;20025;-65
2023/08/22 06:54:32;;;;;;;18.25;6.13;;;;;;;;;;5017885;28;20032;-65
2023/08/22 06:56:58;;;;;;;15.80;6.20;;;;;;;;;;5022255;28;20491;-65
2023/08/22 06:59:24;;;;;;;16.02;6.00;;;;;;;;;;5024517;28;20109;-66
2023/08/22 07:01:50;;;;;;;15.68;5.90;;;;;;;;;;5008220;28;20128;-66
2023/08/22 07:04:17;;;;;;;18.38;6.35;;;;;;;;;;5021132;28;20036;-66
2023/08/22 07:06:43;;;;;;;17.38;5.90;;;;;;;;;;5005682;28;20044;-66
2023/08/22 07:09:09;;;;;;;17.52;5.63;;;;;;;;;;5020843;28;20078;-67
2023/08/22 07:11:36;;;;;;;13.60;6.00;;;;;;;;;;5023836;28;20250;-66
2023/08/22 07:14:03;;;;;;;17.80;5.72;;;;;;;;;;5027435;28;20035;-66
2023/08/22 07:16:29;;;;;;;16.30;5.30;;;;;;;;;;5020123;28;20558;-66
2023/08/22 07:18:55;;;;;;;15.73;4.78;;;;;;;;;;5022116;28;20033;-66
2023/08/22 07:21:21;;;;;;;18.05;4.93;;;;;;;;;;5018070;28;20144;-66
2023/08/22 07:23:47;;;;;;;13.60;4.82;;;;;;;;;;5003408;28;20025;-66
2023/08/22 07:26:13;;;;;;;14.20;5.07;;;;;;;;;;5021198;28;20511;-67
2023/08/22 07:28:39;;;;;;;13.25;4.82;;;;;;;;;;5020898;28;20505;-66
2023/08/22 07:31:06;;;;;;;14.68;4.53;;;;;;;;;;5019610;28;20029;-67
2023/08/22 07:33:32;;;;;;;16.23;5.00;;;;;;;;;;5019256;28;20049;-66
2023/08/22 07:35:59;;;;;;;15.48;4.45;;;;;;;;;;5022328;28;20025;-66
2023/08/22 07:38:25;;;;;;;14.13;5.32;;;;;;;;;;5017255;28;20554;-65
2023/08/22 07:40:51;;;;;;;13.65;4.30;;;;;;;;;;5022535;28;20021;-66
2023/08/22 07:43:17;;;;;;;13.38;4.40;;;;;;;;;;5016116;28;20034;-66
2023/08/22 07:45:44;;;;;;;11.23;3.85;;;;;;;;;;5023888;28;20029;-66
2023/08/22 07:48:10;;;;;;;11.55;3.80;;;;;;;;;;5018531;28;20526;-66
2023/08/22 07:50:36;;;;;;;13.23;4.30;;;;;;;;;;5021786;28;20029;-66
2023/08/22 07:53:04;;;;;;;11.13;4.07;;;;;;;;;;5004196;28;20459;-66
2023/08/22 07:55:31;;;;;;;13.60;4.00;;;;;;;;;;5002385;28;20508;-66
2023/08/22 07:57:57;;;;;;;11.15;4.00;;;;;;;;;;5020593;28;20080;-67
2023/08/22 08:00:23;;;;;;;12.98;4.70;;;;;;;;;;5003437;28;20037;-66
2023/08/22 08:02:49;;;;;;;9.48;3.42;;;;;;;;;;5022245;28;20957;-66
2023/08/22 08:05:15;;;;;;;14.60;4.40;;;;;;;;;;5015482;28;20479;-65
2023/08/22 08:07:42;;;;;;;13.13;3.90;;;;;;;;;;5019426;28;20039;-68
2023/08/22 08:10:08;;;;;;;12.20;4.28;;;;;;;;;;5020529;28;20558;-68
2023/08/22 08:12:34;;;;;;;13.93;4.40;;;;;;;;;;5018641;28;20602;-68
2023/08/22 08:15:00;;;;;;;13.95;4.43;;;;;;;;;;5022020;28;20094;-67
2023/08/22 08:17:27;;;;;;;12.68;4.68;;;;;;;;;;5016864;28;20037;-67
2023/08/22 08:19:53;;;;;;;13.63;4.65;;;;;;;;;;5022298;28;20114;-66
2023/08/22 08:22:19;;;;;;;12.25;4.38;;;;;;;;;;5003192;28;20048;-66
2023/08/22 08:24:45;;;;;;;11.98;4.30;;;;;;;;;;5022571;28;20370;-67
2023/08/22 08:27:11;;;;;;;13.95;4.68;;;;;;;;;;5018968;28;20650;-67
2023/08/22 08:29:37;;;;;;;16.20;4.78;;;;;;;;;;5023160;28;20017;-66
2023/08/22 08:32:04;;;;;;;10.85;4.00;;;;;;;;;;5021370;28;20290;-66
2023/08/22 08:34:30;;;;;;;13.40;4.25;;;;;;;;;;5018774;28;20029;-66
2023/08/22 08:36:57;;;;;;;10.75;3.95;;;;;;;;;;5024022;28;20388;-67
2023/08/22 08:39:23;;;;;;;10.52;3.78;;;;;;;;;;5003209;28;20589;-66
2023/08/22 08:41:52;;;;;;;11.00;3.88;;;;;;;;;;5004380;28;20026;-67
2023/08/22 08:44:18;;;;;;;26.65;4.53;;;;;;;;;;5017014;28;20044;-67
2023/08/22 08:46:44;;;;;;;16.40;4.20;;;;;;;;;;5023207;28;20474;-67
2023/08/22 08:49:11;;;;;;;12.27;3.53;;;;;;;;;;5003189;28;20612;-67
2023/08/22 08:51:38;;;;;;;12.40;3.72;;;;;;;;;;5006083;28;20044;-66
2023/08/22 08:54:04;;;;;;;13.85;4.07;;;;;;;;;;5003444;28;20025;-67
2023/08/22 08:56:30;;;;;;;12.88;4.28;;;;;;;;;;5020164;28;20086;-66
2023/08/22 08:58:57;;;;;;;12.57;3.70;;;;;;;;;;5025761;28;20037;-67
2023/08/22 09:01:24;;;;;;;11.55;3.42;;;;;;;;;;5004026;28;20025;-67
2023/08/22 09:03:51;;;;;;;9.38;3.55;;;;;;;;;;5018517;28;20424;-67
2023/08/22 09:06:17;;;;;;;10.27;3.95;;;;;;;;;;5001831;28;20033;-67
2023/08/22 09:09:01;;;;;;;13.25;3.63;;;;;;;;;;5023525;28;20029;-67
2023/08/22 09:11:28;;;;;;;8.75;3.42;;;;;;;;;;5018613;28;20029;-67
2023/08/22 09:13:55;;;;;;;14.55;3.60;;;;;;;;;;5001244;28;20099;-67
2023/08/22 09:16:26;;;;;;;16.10;3.55;;;;;;;;;;5020004;28;20033;-67
2023/08/22 09:18:53;;;;;;;12.98;3.67;;;;;;;;;;5023877;28;20375;-66
2023/08/22 09:21:19;;;;;;;11.20;3.53;;;;;;;;;;5018760;28;20029;-66
2023/08/22 09:23:49;;;;;;;10.50;3.30;;;;;;;;;;5022786;28;20033;-66
2023/08/22 09:26:21;;;;;;;8.65;3.28;;;;;;;;;;5001327;28;20029;-67
2023/08/22 09:28:47;;;;;;;9.90;3.58;;;;;;;;;;5020132;28;20542;-67
2023/08/22 09:31:24;;;;;;;8.77;2.90;;;;;;;;;;5001715;28;20253;-67
2023/08/22 09:33:50;;;;;;;9.80;3.40;;;;;;;;;;5020838;28;20025;-66
2023/08/22 09:36:20;;;;;;;10.07;3.47;;;;;;;;;;5019526;28;20275;-67
2023/08/22 09:38:56;;;;;;;8.57;3.33;;;;;;;;;;5022377;28;20061;-66
2023/08/22 09:41:23;;;;;;;12.60;3.70;;;;;;;;;;5022235;28;20033;-67
2023/08/22 09:43:53;;;;;;;9.90;3.03;;;;;;;;;;5024097;28;20051;-67
2023/08/22 09:46:20;;;;;;;9.18;3.47;;;;;;;;;;5018357;28;20514;-67
2023/08/22 09:48:47;;;;;;;8.88;3.15;;;;;;;;;;5023909;28;20172;-67
2023/08/22 09:51:16;;;;;;;8.75;3.20;;;;;;;;;;5004320;28;20025;-67
2023/08/22 09:53:42;;;;;;;8.10;3.20;;;;;;;;;;5018248;28;20021;-66
2023/08/22 09:56:08;;;;;;;9.90;3.10;;;;;;;;;;5017078;28;20071;-67
2023/08/22 09:58:35;;;;;;;11.80;3.63;;;;;;;;;;5016930;28;20022;-66
2023/08/22 10:01:02;;;;;;;11.35;3.50;;;;;;;;;;5019867;28;20056;-67
2023/08/22 10:03:29;;;;;;;9.00;3.40;;;;;;;;;;5000791;28;20071;-67
2023/08/22 10:05:55;;;;;;;10.93;3.42;;;;;;;;;;5021935;28;20037;-67
2023/08/22 10:08:21;;;;;;;10.13;3.45;;;;;;;;;;5017283;28;20025;-66
2023/08/22 10:10:48;;;;;;;12.07;3.35;;;;;;;;;;5021999;28;20025;-67
2023/08/22 10:13:16;;;;;;;12.38;3.70;;;;;;;;;;5022197;28;20558;-67
2023/08/22 10:15:42;;;;;;;8.82;3.35;;;;;;;;;;5026432;28;20033;-66
2023/08/22 10:18:08;;;;;;;9.27;3.15;;;;;;;;;;5024722;28;20743;-67
2023/08/22 10:20:38;;;;;;;9.35;3.28;;;;;;;;;;5026675;28;20037;-67
2023/08/22 10:23:04;;;;;;;9.30;2.95;;;;;;;;;;5026867;28;20033;-66
2023/08/22 10:25:47;;;;;;;10.57;3.38;;;;;;;;;;5021537;28;20040;-67
2023/08/22 10:28:13;;;;;;;10.65;3.38;;;;;;;;;;5002279;28;20680;-66
2023/08/22 10:31:01;;;;;;;8.25;3.33;;;;;;;;;;5009159;28;20033;-66
2023/08/22 10:33:28;;;;;;;12.13;3.17;;;;;;;;;;5025340;28;20037;-67
2023/08/22 10:36:03;;;;;;;6.95;2.88;;;;;;;;;;5023262;28;20021;-66
2023/08/22 10:38:29;;;;;;;10.18;3.00;;;;;;;;;;5004202;28;20126;-66
2023/08/22 10:40:56;;;;;;;9.77;3.40;;;;;;;;;;5007542;28;20513;-69
2023/08/22 10:43:38;;;;;;;10.77;3.55;;;;;;;;;;5022560;28;20429;-68
2023/08/22 10:46:04;;;;;;;9.55;3.03;;;;;;;;;;5026191;28;20098;-68
2023/08/22 10:48:30;;;;;;;8.88;3.28;;;;;;;;;;5002173;28;20036;-68
2023/08/22 10:51:07;;;;;;;11.13;3.70;;;;;;;;;;5004079;28;20814;-68
2023/08/22 10:53:44;;;;;;;8.30;2.72;;;;;;;;;;5022578;28;20414;-67
2023/08/22 10:56:23;;;;;;;9.32;3.05;;;;;;;;;;5004691;28;20623;-67
2023/08/22 10:58:59;;;;;;;10.05;2.92;;;;;;;;;;5004695;28;20028;-66
2023/08/22 11:01:26;;;;;;;14.70;3.17;;;;;;;;;;5004525;28;20500;-66
2023/08/22 11:03:52;;;;;;;6.43;2.80;;;;;;;;;;5024348;28;20992;-66
2023/08/22 11:06:19;;;;;;;14.70;3.38;;;;;;;;;;5022315;28;20041;-69
2023/08/22 11:08:46;;;;;;;8.82;2.75;;;;;;;;;;5026359;28;20039;-68
2023/08/22 11:11:13;;;;;;;13.00;3.15;;;;;;;;;;5025252;28;20176;-69
2023/08/22 11:13:40;;;;;;;10.57;3.22;;;;;;;;;;5004120;28;20024;-68
2023/08/22 11:16:11;;;;;;;10.43;3.13;;;;;;;;;;5028562;28;20079;-68
2023/08/22 11:18:38;;;;;;;8.88;2.80;;;;;;;;;;5005186;28;20534;-69
2023/08/22 11:21:04;;;;;;;9.13;2.90;;;;;;;;;;5022949;28;20042;-69
2023/08/22 11:23:31;;;;;;;8.73;2.97;;;;;;;;;;5005081;28;20418;-68
2023/08/22 11:25:58;;;;;;;11.13;3.58;;;;;;;;;;5022019;28;20036;-68
2023/08/22 11:28:31;;;;;;;9.90;3.03;;;;;;;;;;5001180;28;20045;-68
2023/08/22 11:30:57;;;;;;;8.32;2.80;;;;;;;;;;5023987;28;20531;-68
2023/08/22 11:33:23;;;;;;;6.95;2.67;;;;;;;;;;5017689;28;20032;-68
2023/08/22 11:35:50;;;;;;;9.60;2.80;;;;;;;;;;5000670;28;20033;-67
2023/08/22 11:38:16;;;;;;;8.20;2.88;;;;;;;;;;4979269;28;20078;-67
2023/08/22 11:40:42;;;;;;;8.10;2.80;;;;;;;;;;4981075;28;20488;-67
2023/08/22 11:43:10;;;;;;;10.77;2.88;;;;;;;;;;4980873;28;20072;-67
2023/08/22 11:45:45;;;;;;;9.57;2.97;;;;;;;;;;5000281;28;20357;-67
2023/08/22 11:48:14;;;;;;;8.32;2.95;;;;;;;;;;4979740;28;20018;-67
2023/08/22 11:50:42;;;;;;;8.70;3.00;;;;;;;;;;4997610;28;20617;-69
2023/08/22 11:53:11;;;;;;;9.10;2.97;;;;;;;;;;4982710;28;20088;-67
2023/08/22 11:55:43;;;;;;;10.15;2.83;;;;;;;;;;4979916;28;20146;-69
2023/08/22 11:58:11;;;;;;;10.20;3.00;;;;;;;;;;4980831;28;20659;-67
2023/08/22 12:00:37;;;;;;;6.70;2.40;;;;;;;;;;4975429;28;20453;-68
2023/08/22 12:03:05;;;;;;;8.18;2.83;;;;;;;;;;4981999;28;20036;-68
2023/08/22 12:05:37;;;;;;;9.15;2.90;;;;;;;;;;4977181;28;20026;-68
2023/08/22 12:08:06;;;;;;;8.70;2.78;;;;;;;;;;4981220;28;20231;-68
2023/08/22 12:10:39;;;;;;;7.05;2.28;;;;;;;;;;4993357;28;20465;-68
2023/08/22 12:13:05;;;;;;;11.32;3.70;;;;;;;;;;4980443;28;20299;-68
2023/08/22 12:15:32;;;;;;;8.18;2.88;;;;;;;;;;4977750;28;20033;-68
2023/08/22 12:17:58;;;;;;;10.80;2.90;;;;;;;;;;4979733;28;20455;-68
2023/08/22 12:20:25;;;;;;;7.95;2.60;;;;;;;;;;4974298;28;20029;-68
2023/08/22 12:22:51;;;;;;;8.23;2.95;;;;;;;;;;4980529;28;20212;-68
2023/08/22 12:25:17;;;;;;;6.47;2.65;;;;;;;;;;4994924;28;20038;-68
2023/08/22 12:27:43;;;;;;;7.68;2.50;;;;;;;;;;4978588;28;20041;-68
2023/08/22 12:30:10;;;;;;;12.45;2.55;;;;;;;;;;4975684;28;20091;-68
2023/08/22 12:32:36;;;;;;;9.43;2.90;;;;;;;;;;4977595;28;20387;-68
2023/08/22 12:35:03;;;;;;;7.63;2.70;;;;;;;;;;4974797;28;20053;-67
2023/08/22 12:37:32;;;;;;;13.77;3.55;;;;;;;;;;4994275;28;20126;-67
2023/08/22 12:39:58;;;;;;;12.45;3.00;;;;;;;;;;4999114;28;20484;-68
2023/08/22 12:42:24;;;;;;;9.63;3.13;;;;;;;;;;5016558;28;20021;-68
2023/08/22 12:44:50;;;;;;;8.43;2.85;;;;;;;;;;5019038;28;20091;-67
2023/08/22 12:47:17;;;;;;;37.88;4.53;;;;;;;;;;4996705;28;20207;-67
2023/08/22 12:49:43;;;;;;;12.68;3.00;;;;;;;;;;5017718;28;20390;-67
2023/08/22 12:52:09;;;;;;;11.00;3.15;;;;;;;;;;5013225;28;20040;-67
2023/08/22 12:54:35;;;;;;;7.65;2.78;;;;;;;;;;5016655;28;20041;-67
2023/08/22 12:57:01;;;;;;;11.20;3.17;;;;;;;;;;5017841;28;20115;-68
2023/08/22 12:59:27;;;;;;;12.15;2.92;;;;;;;;;;5011587;28;20475;-68
2023/08/22 13:01:53;;;;;;;8.20;2.75;;;;;;;;;;5014959;28;20830;-68
2023/08/22 13:04:20;;;;;;;9.30;2.80;;;;;;;;;;5017399;28;20040;-68
2023/08/22 13:06:46;;;;;;;10.43;2.92;;;;;;;;;;5014239;28;20068;-68
2023/08/22 13:09:12;;;;;;;8.50;2.78;;;;;;;;;;5015000;28;20427;-68
2023/08/22 13:11:39;;;;;;;15.18;4.25;;;;;;;;;;4999627;28;20025;-67
2023/08/22 13:14:07;;;;;;;10.02;3.25;;;;;;;;;;4996350;28;20029;-68
2023/08/22 13:16:33;;;;;;;9.68;3.03;;;;;;;;;;5016067;28;20025;-68
2023/08/22 13:18:59;;;;;;;10.30;3.40;;;;;;;;;;5014843;28;20060;-68
2023/08/22 13:21:26;;;;;;;11.63;3.25;;;;;;;;;;5016883;28;20140;-68
2023/08/22 13:23:53;;;;;;;8.82;2.60;;;;;;;;;;5015680;28;20364;-67
2023/08/22 13:26:19;;;;;;;8.32;2.65;;;;;;;;;;5016980;28;20407;-68
2023/08/22 13:28:45;;;;;;;12.15;3.28;;;;;;;;;;5018643;28;20382;-68
2023/08/22 13:31:12;;;;;;;8.65;2.85;;;;;;;;;;5014468;28;20456;-67
2023/08/22 13:33:39;;;;;;;7.93;2.75;;;;;;;;;;5018291;28;20028;-68
2023/08/22 13:36:05;;;;;;;7.50;2.80;;;;;;;;;;5000835;28;20562;-67
2023/08/22 13:38:31;;;;;;;9.38;2.95;;;;;;;;;;5015057;28;20049;-67
2023/08/22 13:40:57;;;;;;;11.73;3.25;;;;;;;;;;5016097;28;20112;-67
2023/08/22 13:43:24;;;;;;;11.98;3.60;;;;;;;;;;5015791;28;20694;-67
2023/08/22 13:45:50;;;;;;;12.00;3.95;;;;;;;;;;5016515;28;20045;-67
2023/08/22 13:48:16;;;;;;;10.55;3.20;;;;;;;;;;5002825;28;20060;-67
2023/08/22 13:50:42;;;;;;;11.25;3.30;;;;;;;;;;5023153;28;20052;-67
2023/08/22 13:53:09;;;;;;;8.27;3.08;;;;;;;;;;5026808;28;20057;-67
2023/08/22 13:55:35;;;;;;;10.00;3.10;;;;;;;;;;5023755;28;20090;-67
2023/08/22 13:58:01;;;;;;;9.98;3.10;;;;;;;;;;5015922;28;20445;-67
2023/08/22 14:00:27;;;;;;;9.65;2.95;;;;;;;;;;5014221;28;20021;-67
2023/08/22 14:02:54;;;;;;;8.00;2.72;;;;;;;;;;5021123;28;20047;-68
2023/08/22 14:05:20;;;;;;;9.48;3.17;;;;;;;;;;5012037;28;20040;-67
2023/08/22 14:07:46;;;;;;;8.23;2.97;;;;;;;;;;4998779;28;20057;-68
2023/08/22 14:10:12;;;;;;;10.48;2.85;;;;;;;;;;5014673;28;20025;-66
2023/08/22 14:12:38;;;;;;;9.27;2.97;;;;;;;;;;5017989;28;20029;-67
2023/08/22 14:15:05;;;;;;;9.02;2.67;;;;;;;;;;5020514;28;20582;-67
2023/08/22 14:17:31;;;;;;;9.48;3.17;;;;;;;;;;5017644;28;20674;-67
2023/08/22 14:19:57;;;;;;;9.70;3.13;;;;;;;;;;5019889;28;20432;-69
2023/08/22 14:22:23;;;;;;;11.98;3.22;;;;;;;;;;5015718;28;20112;-67
2023/08/22 14:24:49;;;;;;;10.95;3.00;;;;;;;;;;5016272;28;20909;-67
2023/08/22 14:27:15;;;;;;;13.30;3.58;;;;;;;;;;5013521;28;20025;-67
2023/08/22 14:29:42;;;;;;;10.27;3.33;;;;;;;;;;5019461;28;20017;-67
2023/08/22 14:32:08;;;;;;;12.68;3.10;;;;;;;;;;5019106;28;20033;-67